Time;durP1;ratioP1;P1;durP2;ratioP2;P2;SDS_P1;SDS_P2;PMS_P1;PMS_P2;Temp;Humidity;BMP_temperature;BMP_pressure;BME280_temperature;BME280_humidity;BME280_pressure;Samples;Min_cycle;Max_cycle;Signal;HPM_P1;HPM_P2
2023/02/17 00:01:34;;;;;;;0.82;0.82;;;18.50;51.20;;;;;;5116283;28;20250;-75
2023/02/17 00:04:02;;;;;;;0.88;0.70;;;18.50;51.20;;;;;;5115332;28;20274;-68
2023/02/17 00:06:31;;;;;;;0.80;0.80;;;18.50;51.20;;;;;;5116094;28;20181;-72
2023/02/17 00:08:58;;;;;;;1.00;0.75;;;18.50;51.30;;;;;;5115932;28;20694;-75
2023/02/17 00:11:28;;;;;;;1.08;0.82;;;18.50;51.20;;;;;;5116066;28;20228;-69
2023/02/17 00:13:55;;;;;;;0.98;0.60;;;18.50;51.30;;;;;;5115817;28;20220;-68
2023/02/17 00:16:24;;;;;;;1.20;0.82;;;18.50;51.30;;;;;;5106047;28;20732;-74
2023/02/17 00:18:54;;;;;;;1.55;0.75;;;18.50;51.30;;;;;;5095346;28;20229;-68
2023/02/17 00:21:23;;;;;;;0.85;0.70;;;18.50;51.30;;;;;;5095440;28;20243;-68
2023/02/17 00:23:51;;;;;;;0.90;0.77;;;18.50;51.30;;;;;;5095325;28;20236;-68
2023/02/17 00:26:21;;;;;;;1.10;0.98;;;18.50;51.30;;;;;;5095359;28;20182;-68
2023/02/17 00:28:50;;;;;;;0.60;0.60;;;18.40;51.20;;;;;;5105770;28;20282;-77
2023/02/17 00:31:19;;;;;;;1.00;0.73;;;18.50;51.40;;;;;;5115642;28;20527;-68
2023/02/17 00:33:47;;;;;;;1.02;0.80;;;18.50;51.40;;;;;;5113978;28;20768;-73
2023/02/17 00:36:16;;;;;;;0.93;0.68;;;18.50;51.40;;;;;;5115391;28;20278;-75
2023/02/17 00:38:45;;;;;;;0.80;0.80;;;18.40;51.40;;;;;;5115325;28;20232;-68
2023/02/17 00:41:12;;;;;;;0.73;0.73;;;18.40;51.40;;;;;;5100289;28;20224;-68
2023/02/17 00:43:39;;;;;;;1.00;0.75;;;18.50;51.50;;;;;;5094663;28;20772;-68
2023/02/17 00:46:08;;;;;;;0.70;0.70;;;18.50;51.50;;;;;;5094668;28;20708;-68
2023/02/17 00:48:35;;;;;;;0.73;0.70;;;18.50;51.50;;;;;;5094876;28;20222;-68
2023/02/17 00:51:02;;;;;;;1.00;0.90;;;18.50;51.60;;;;;;5094843;28;20186;-68
2023/02/17 00:53:30;;;;;;;1.05;0.80;;;18.40;51.50;;;;;;5095776;28;20217;-68
2023/02/17 00:55:57;;;;;;;0.93;0.80;;;18.40;51.60;;;;;;5094333;28;20709;-68
2023/02/17 00:58:25;;;;;;;1.02;0.70;;;18.40;51.60;;;;;;5094300;28;20290;-75
2023/02/17 01:00:52;;;;;;;0.75;0.75;;;18.40;51.60;;;;;;5093595;28;20648;-69
2023/02/17 01:03:21;;;;;;;0.93;0.77;;;18.40;51.60;;;;;;5094614;28;20213;-67
2023/02/17 01:05:49;;;;;;;1.15;0.90;;;18.40;51.60;;;;;;5114188;28;20549;-69
2023/02/17 01:08:18;;;;;;;1.00;0.90;;;18.40;51.70;;;;;;5114563;28;20221;-68
2023/02/17 01:10:47;;;;;;;0.88;0.88;;;18.40;51.70;;;;;;5114824;28;20253;-68
2023/02/17 01:13:16;;;;;;;1.15;0.88;;;18.40;51.60;;;;;;5114867;28;20639;-67
2023/02/17 01:15:45;;;;;;;1.00;0.90;;;18.40;51.70;;;;;;5113523;28;20189;-69
2023/02/17 01:18:13;;;;;;;0.82;0.70;;;18.40;51.70;;;;;;5092666;28;20228;-69
2023/02/17 01:20:42;;;;;;;0.80;0.80;;;18.40;51.70;;;;;;5093946;28;20190;-68
2023/02/17 01:23:11;;;;;;;0.60;0.60;;;18.30;51.60;;;;;;5094274;28;20625;-76
2023/02/17 01:25:39;;;;;;;0.80;0.80;;;18.40;51.80;;;;;;5094210;28;20247;-77
2023/02/17 01:28:06;;;;;;;0.75;0.60;;;18.30;51.70;;;;;;5096985;28;20221;-68
2023/02/17 01:30:34;;;;;;;1.20;0.80;;;18.40;51.80;;;;;;5114485;28;20258;-68
2023/02/17 01:33:01;;;;;;;1.40;0.90;;;18.40;51.80;;;;;;5114489;28;20213;-69
2023/02/17 01:35:28;;;;;;;0.90;0.90;;;18.30;51.80;;;;;;5114113;28;20238;-67
2023/02/17 01:37:57;;;;;;;0.85;0.82;;;18.30;51.80;;;;;;5114097;28;20304;-67
2023/02/17 01:40:24;;;;;;;0.80;0.75;;;18.30;51.80;;;;;;5109925;28;20247;-68
2023/02/17 01:42:51;;;;;;;1.00;0.80;;;18.30;51.80;;;;;;5093100;28;20218;-68
2023/02/17 01:45:35;;;;;;;0.82;0.80;;;18.30;51.80;;;;;;5092597;28;20190;-68
2023/02/17 01:48:10;;;;;;;0.85;0.80;;;18.30;51.80;;;;;;5093806;28;20217;-67
2023/02/17 01:50:43;;;;;;;1.35;1.05;;;18.30;51.80;;;;;;5093445;28;20528;-70
2023/02/17 01:53:16;;;;;;;0.88;0.88;;;18.30;51.80;;;;;;5106353;28;20217;-68
2023/02/17 01:55:44;;;;;;;1.00;0.90;;;18.30;51.80;;;;;;5112833;28;20589;-69
2023/02/17 01:58:14;;;;;;;0.70;0.70;;;18.30;51.90;;;;;;5113737;28;20301;-74
2023/02/17 02:00:42;;;;;;;0.80;0.77;;;18.30;51.80;;;;;;5113503;28;20189;-68
2023/02/17 02:03:12;;;;;;;0.80;0.75;;;18.20;51.80;;;;;;5113608;28;20217;-68
2023/02/17 02:05:41;;;;;;;1.10;1.00;;;18.30;51.90;;;;;;5098501;28;20217;-69
2023/02/17 02:08:11;;;;;;;0.80;0.60;;;18.30;51.90;;;;;;5093132;28;20271;-77
2023/02/17 02:10:39;;;;;;;0.60;0.60;;;18.30;51.90;;;;;;5092908;28;20768;-69
2023/02/17 02:13:07;;;;;;;0.70;0.60;;;18.30;51.90;;;;;;5093035;28;20691;-67
2023/02/17 02:15:42;;;;;;;0.82;0.80;;;18.30;51.90;;;;;;5093274;28;20194;-67
2023/02/17 02:18:31;;;;;;;0.70;0.70;;;18.30;51.90;;;;;;5109663;28;20224;-75
2023/02/17 02:21:34;;;;;;;0.75;0.70;;;18.30;51.90;;;;;;5113101;28;20190;-68
2023/02/17 02:24:25;;;;;;;0.63;0.63;;;18.30;51.90;;;;;;5097687;28;20589;-68
2023/02/17 02:27:28;;;;;;;0.82;0.75;;;18.30;52.00;;;;;;5113401;28;20242;-68
2023/02/17 02:30:20;;;;;;;0.85;0.70;;;18.20;51.90;;;;;;5099508;28;20714;-68
2023/02/17 02:33:07;;;;;;;0.90;0.90;;;18.20;51.90;;;;;;5092875;28;20231;-68
2023/02/17 02:35:45;;;;;;;0.70;0.70;;;18.30;52.10;;;;;;5092976;28;20190;-71
2023/02/17 02:38:16;;;;;;;0.70;0.70;;;18.20;52.00;;;;;;5091482;28;20600;-70
2023/02/17 02:40:47;;;;;;;0.60;0.60;;;18.20;52.00;;;;;;5097329;28;20189;-69
2023/02/17 02:43:16;;;;;;;0.60;0.60;;;18.20;52.00;;;;;;5113203;28;20220;-68
2023/02/17 02:45:44;;;;;;;0.70;0.65;;;18.20;52.00;;;;;;5111136;28;20253;-68
2023/02/17 02:48:13;;;;;;;0.70;0.70;;;18.20;52.00;;;;;;5113037;28;20640;-72
2023/02/17 02:50:55;;;;;;;1.38;0.55;;;18.20;52.00;;;;;;5111960;28;20251;-75
2023/02/17 02:53:45;;;;;;;0.70;0.70;;;18.20;52.00;;;;;;5101916;28;20614;-76
2023/02/17 02:56:21;;;;;;;0.88;0.85;;;18.20;52.00;;;;;;5092297;28;20190;-68
2023/02/17 02:58:58;;;;;;;0.60;0.60;;;18.20;52.00;;;;;;5092615;28;20361;-68
2023/02/17 03:01:34;;;;;;;0.95;0.70;;;18.20;52.10;;;;;;5091056;28;20193;-69
2023/02/17 03:04:11;;;;;;;0.80;0.77;;;18.20;52.10;;;;;;5092353;28;20209;-69
2023/02/17 03:06:46;;;;;;;0.60;0.60;;;18.20;52.10;;;;;;5092813;28;20190;-68
2023/02/17 03:09:17;;;;;;;0.70;0.70;;;18.20;52.10;;;;;;5092524;28;20259;-68
2023/02/17 03:11:45;;;;;;;0.70;0.70;;;18.20;52.10;;;;;;5092619;28;20562;-68
2023/02/17 03:14:15;;;;;;;0.80;0.70;;;18.20;52.10;;;;;;5092348;28;20214;-69
2023/02/17 03:16:43;;;;;;;0.70;0.70;;;18.20;52.10;;;;;;5096635;28;20559;-67
2023/02/17 03:19:15;;;;;;;0.70;0.63;;;18.20;52.10;;;;;;5111325;28;20698;-76
2023/02/17 03:21:51;;;;;;;0.80;0.80;;;18.20;52.10;;;;;;5111705;28;20181;-75
2023/02/17 03:24:18;;;;;;;1.23;0.77;;;18.20;52.20;;;;;;5116582;28;20275;-77
2023/02/17 03:26:46;;;;;;;0.70;0.70;;;18.10;52.10;;;;;;5116742;28;20242;-75
2023/02/17 03:29:13;;;;;;;0.70;0.70;;;18.20;52.20;;;;;;5105995;28;20615;-70
2023/02/17 03:31:41;;;;;;;0.50;0.50;;;18.20;52.20;;;;;;5096058;28;20618;-76
2023/02/17 03:34:09;;;;;;;0.60;0.50;;;18.20;52.20;;;;;;5096446;28;20308;-68
2023/02/17 03:36:37;;;;;;;0.77;0.77;;;18.10;52.10;;;;;;5096200;28;20225;-68
2023/02/17 03:39:04;;;;;;;0.65;0.65;;;18.20;52.20;;;;;;5096522;28;20279;-68
2023/02/17 03:41:31;;;;;;;0.63;0.63;;;18.10;52.10;;;;;;5108652;28;20193;-68
2023/02/17 03:43:58;;;;;;;1.55;0.60;;;18.10;52.20;;;;;;5116248;28;20217;-71
2023/02/17 03:46:26;;;;;;;0.60;0.60;;;18.10;52.10;;;;;;5116471;28;20194;-74
2023/02/17 03:48:53;;;;;;;0.60;0.60;;;18.10;52.20;;;;;;5080915;28;20221;-68
2023/02/17 03:51:22;;;;;;;0.65;0.65;;;18.10;52.20;;;;;;5116465;28;20227;-68
2023/02/17 03:53:52;;;;;;;0.70;0.70;;;18.10;52.20;;;;;;5100273;27;20218;-68
2023/02/17 03:56:19;;;;;;;1.02;0.60;;;18.10;52.20;;;;;;5095945;28;20190;-69
2023/02/17 03:58:47;;;;;;;0.65;0.60;;;18.10;52.20;;;;;;5095646;28;20229;-68
2023/02/17 04:01:15;;;;;;;0.70;0.70;;;18.10;52.20;;;;;;5073809;28;20190;-68
2023/02/17 04:03:42;;;;;;;0.50;0.50;;;18.10;52.20;;;;;;5095525;28;20640;-68
2023/02/17 04:06:11;;;;;;;0.70;0.70;;;18.10;52.30;;;;;;5111655;28;20189;-68
2023/02/17 04:08:39;;;;;;;0.63;0.50;;;18.10;52.30;;;;;;5116234;28;20213;-68
2023/02/17 04:11:09;;;;;;;0.73;0.60;;;18.10;52.30;;;;;;5116039;27;20239;-68
2023/02/17 04:13:37;;;;;;;1.05;0.70;;;18.10;52.30;;;;;;5115755;28;20643;-68
2023/02/17 04:16:06;;;;;;;1.10;0.88;;;18.10;52.30;;;;;;5115775;28;20212;-68
2023/02/17 04:18:34;;;;;;;0.60;0.60;;;18.10;52.30;;;;;;5098147;27;20206;-68
2023/02/17 04:21:01;;;;;;;0.90;0.70;;;18.10;52.40;;;;;;5076735;28;20602;-68
2023/02/17 04:23:29;;;;;;;0.80;0.60;;;18.00;52.30;;;;;;5095023;28;20590;-74
2023/02/17 04:25:56;;;;;;;1.27;0.60;;;18.10;52.40;;;;;;5095408;28;20190;-68
2023/02/17 04:28:25;;;;;;;1.23;0.70;;;18.00;52.30;;;;;;5095231;28;20252;-69
2023/02/17 04:30:52;;;;;;;0.70;0.50;;;18.00;52.20;;;;;;5114405;28;20193;-68
2023/02/17 04:33:19;;;;;;;0.93;0.70;;;18.00;52.30;;;;;;5114038;28;20655;-68
2023/02/17 04:35:47;;;;;;;0.52;0.47;;;18.00;52.30;;;;;;5114485;28;20220;-73
2023/02/17 04:38:15;;;;;;;1.15;0.70;;;18.00;52.30;;;;;;5115546;28;20193;-71
2023/02/17 04:40:42;;;;;;;0.70;0.60;;;18.00;52.40;;;;;;5115571;28;20213;-68
2023/02/17 04:43:10;;;;;;;0.80;0.60;;;18.00;52.30;;;;;;5095283;28;20547;-71
2023/02/17 04:45:38;;;;;;;0.80;0.50;;;18.00;52.30;;;;;;5095152;28;20248;-68
2023/02/17 04:48:06;;;;;;;0.73;0.60;;;18.10;52.50;;;;;;5094599;28;20186;-68
2023/02/17 04:50:33;;;;;;;0.60;0.60;;;18.00;52.40;;;;;;5094831;28;20217;-68
2023/02/17 04:53:00;;;;;;;1.13;0.70;;;18.00;52.40;;;;;;5096503;28;20190;-74
2023/02/17 04:55:28;;;;;;;0.65;0.60;;;18.00;52.40;;;;;;5114837;28;20628;-68
2023/02/17 04:57:55;;;;;;;0.55;0.50;;;18.00;52.40;;;;;;5115279;28;20196;-68
2023/02/17 05:00:23;;;;;;;0.55;0.50;;;18.00;52.40;;;;;;5114913;28;20653;-70
2023/02/17 05:02:52;;;;;;;0.73;0.55;;;18.00;52.40;;;;;;5114722;28;20611;-68
2023/02/17 05:05:19;;;;;;;1.15;0.70;;;18.00;52.40;;;;;;5109671;28;20618;-68
2023/02/17 05:07:48;;;;;;;0.95;0.60;;;18.00;52.40;;;;;;5094547;28;20182;-73
2023/02/17 05:10:17;;;;;;;0.70;0.60;;;18.00;52.40;;;;;;5094931;28;20222;-68
2023/02/17 05:12:45;;;;;;;0.95;0.60;;;18.00;52.40;;;;;;5094546;28;20251;-68
2023/02/17 05:15:13;;;;;;;0.60;0.60;;;18.00;52.40;;;;;;5094288;28;20723;-76
2023/02/17 05:17:40;;;;;;;0.95;0.68;;;18.00;52.40;;;;;;5095416;28;20235;-68
2023/02/17 05:20:10;;;;;;;0.63;0.50;;;18.00;52.40;;;;;;5094010;28;20225;-68
2023/02/17 05:22:38;;;;;;;0.77;0.65;;;18.00;52.40;;;;;;5094326;28;20186;-68
2023/02/17 05:25:05;;;;;;;2.38;1.10;;;18.00;52.50;;;;;;5094335;28;20210;-68
2023/02/17 05:27:33;;;;;;;0.63;0.60;;;17.90;52.40;;;;;;5061809;28;20251;-71
2023/02/17 05:30:00;;;;;;;0.90;0.63;;;18.00;52.50;;;;;;5094161;28;20214;-76
2023/02/17 05:32:28;;;;;;;1.67;0.90;;;17.90;52.40;;;;;;5093805;28;20186;-68
2023/02/17 05:34:55;;;;;;;0.82;0.60;;;17.90;52.50;;;;;;5093588;28;20217;-72
2023/02/17 05:37:24;;;;;;;0.52;0.52;;;18.00;52.50;;;;;;5093931;28;20229;-68
2023/02/17 05:39:51;;;;;;;0.93;0.70;;;18.00;52.60;;;;;;5099539;28;20570;-68
2023/02/17 05:42:18;;;;;;;0.65;0.60;;;18.00;52.50;;;;;;5112837;28;20790;-75
2023/02/17 05:44:45;;;;;;;0.50;0.50;;;17.90;52.40;;;;;;5114014;28;20209;-67
2023/02/17 05:47:12;;;;;;;1.25;0.68;;;17.90;52.50;;;;;;5113533;28;20539;-68
2023/02/17 05:49:39;;;;;;;1.05;0.57;;;18.00;52.60;;;;;;5114148;27;20212;-68
2023/02/17 05:52:06;;;;;;;0.60;0.60;;;18.00;52.60;;;;;;5105187;28;20594;-68
2023/02/17 05:54:36;;;;;;;0.52;0.52;;;18.00;52.60;;;;;;5094129;28;20214;-75
2023/02/17 05:57:03;;;;;;;0.90;0.70;;;18.00;52.60;;;;;;5093760;28;20319;-75
2023/02/17 05:59:31;;;;;;;0.95;0.60;;;18.10;52.70;;;;;;5093506;28;20282;-68
2023/02/17 06:01:58;;;;;;;0.57;0.57;;;18.10;52.60;;;;;;5091976;28;20190;-74
2023/02/17 06:04:25;;;;;;;1.20;0.80;;;18.10;52.60;;;;;;5105498;28;20217;-69
2023/02/17 06:06:52;;;;;;;0.85;0.60;;;18.10;52.50;;;;;;5113745;28;20185;-75
2023/02/17 06:09:19;;;;;;;0.73;0.60;;;18.10;52.50;;;;;;5113400;28;20213;-69
2023/02/17 06:11:48;;;;;;;1.05;0.50;;;18.20;52.50;;;;;;5113652;28;20189;-68
2023/02/17 06:14:16;;;;;;;0.80;0.70;;;18.20;52.50;;;;;;5113664;28;20224;-69
2023/02/17 06:16:43;;;;;;;1.40;0.60;;;18.20;52.40;;;;;;5097947;28;20239;-68
2023/02/17 06:19:10;;;;;;;0.52;0.52;;;18.20;52.30;;;;;;5091381;28;20209;-75
2023/02/17 06:21:37;;;;;;;1.15;0.60;;;18.30;52.40;;;;;;5093149;28;20190;-67
2023/02/17 06:24:05;;;;;;;0.50;0.50;;;18.30;52.30;;;;;;5091813;28;20186;-68
2023/02/17 06:26:32;;;;;;;1.10;0.60;;;18.30;52.30;;;;;;5093027;28;20255;-68
2023/02/17 06:29:02;;;;;;;0.95;0.60;;;18.40;52.30;;;;;;5105908;28;20646;-67
2023/02/17 06:31:29;;;;;;;0.93;0.60;;;18.40;52.30;;;;;;5111116;28;20193;-67
2023/02/17 06:33:56;;;;;;;0.80;0.68;;;18.40;52.20;;;;;;5113395;28;20196;-72
2023/02/17 06:36:24;;;;;;;0.60;0.50;;;18.40;52.10;;;;;;5112880;28;20278;-68
2023/02/17 06:38:51;;;;;;;0.77;0.60;;;18.50;52.10;;;;;;5112751;28;20193;-68
2023/02/17 06:41:18;;;;;;;1.23;0.90;;;18.50;52.00;;;;;;5098400;28;20259;-71
2023/02/17 06:43:45;;;;;;;1.70;0.75;;;18.50;52.00;;;;;;5092902;28;20237;-68
2023/02/17 06:46:14;;;;;;;0.88;0.80;;;18.50;51.90;;;;;;5092990;28;20214;-69
2023/02/17 06:48:41;;;;;;;1.35;0.70;;;18.50;51.90;;;;;;5092477;28;20235;-70
2023/02/17 06:51:09;;;;;;;0.77;0.77;;;18.50;52.00;;;;;;5092896;28;20221;-75
2023/02/17 06:53:36;;;;;;;1.10;0.90;;;18.60;52.90;;;;;;5109669;28;20190;-75
2023/02/17 06:56:03;;;;;;;0.73;0.63;;;18.60;52.20;;;;;;5112302;28;20645;-67
2023/02/17 06:58:31;;;;;;;1.20;0.70;;;18.60;52.60;;;;;;5112361;28;20192;-68
2023/02/17 07:00:58;;;;;;;1.23;0.80;;;18.60;52.80;;;;;;5077364;28;20285;-67
2023/02/17 07:03:28;;;;;;;1.95;0.70;;;18.70;54.00;;;;;;5113194;28;20185;-68
2023/02/17 07:05:57;;;;;;;1.67;0.90;;;18.70;53.60;;;;;;5092145;28;20213;-67
2023/02/17 07:08:25;;;;;;;2.33;0.80;;;18.70;53.30;;;;;;5092593;28;20186;-68
2023/02/17 07:10:52;;;;;;;1.13;0.75;;;18.70;53.10;;;;;;5092060;28;20214;-68
2023/02/17 07:13:19;;;;;;;1.23;0.73;;;18.80;53.00;;;;;;5092205;28;20239;-68
2023/02/17 07:15:46;;;;;;;0.77;0.60;;;18.80;52.90;;;;;;5091995;28;20218;-68
2023/02/17 07:18:14;;;;;;;1.10;0.68;;;18.80;52.80;;;;;;5092366;28;20239;-68
2023/02/17 07:20:43;;;;;;;1.42;0.60;;;18.80;52.70;;;;;;5056768;28;20639;-68
2023/02/17 07:23:10;;;;;;;3.25;1.20;;;18.80;52.70;;;;;;5092113;28;20190;-76
2023/02/17 07:25:37;;;;;;;0.95;0.65;;;18.80;52.60;;;;;;5092845;28;20283;-68
2023/02/17 07:28:04;;;;;;;1.60;0.88;;;18.80;52.50;;;;;;5092044;28;20201;-68
2023/02/17 07:30:31;;;;;;;1.83;0.98;;;18.80;52.50;;;;;;5092687;28;20243;-67
2023/02/17 07:32:58;;;;;;;0.80;0.68;;;18.90;52.50;;;;;;5092316;28;20260;-78
2023/02/17 07:35:26;;;;;;;0.88;0.85;;;18.90;52.40;;;;;;5092367;28;20218;-74
2023/02/17 07:37:56;;;;;;;2.63;0.65;;;18.90;52.40;;;;;;5091852;28;20222;-67
2023/02/17 07:40:24;;;;;;;0.90;0.50;;;18.90;52.30;;;;;;5091579;28;20635;-68
2023/02/17 07:42:51;;;;;;;1.00;0.63;;;18.90;52.30;;;;;;5091797;28;20190;-77
2023/02/17 07:45:18;;;;;;;2.80;0.70;;;18.90;52.20;;;;;;5091855;28;20214;-74
2023/02/17 07:47:46;;;;;;;0.95;0.60;;;18.90;52.20;;;;;;5090120;28;20255;-74
2023/02/17 07:50:13;;;;;;;3.47;1.00;;;18.90;51.90;;;;;;5099231;28;20230;-74
2023/02/17 07:52:40;;;;;;;1.95;0.82;;;18.90;51.70;;;;;;5099963;28;20255;-75
2023/02/17 07:55:10;;;;;;;1.75;1.10;;;18.90;51.70;;;;;;5091361;28;20591;-73
2023/02/17 07:57:37;;;;;;;2.30;1.00;;;18.90;51.70;;;;;;5093551;28;20198;-72
2023/02/17 08:00:06;;;;;;;7.63;1.33;;;18.90;51.80;;;;;;5090149;28;20234;-73
2023/02/17 08:02:33;;;;;;;3.10;1.00;;;18.90;51.80;;;;;;5090397;28;20193;-73
2023/02/17 08:05:00;;;;;;;1.85;0.80;;;18.90;51.80;;;;;;5108521;28;20218;-73
2023/02/17 08:07:28;;;;;;;1.52;0.70;;;18.90;51.70;;;;;;5110323;28;20655;-72
2023/02/17 08:15:25;;;;;;;2.10;0.70;;;19.00;52.00;;;;;;5107337;28;20216;-69
2023/02/17 08:17:53;;;;;;;1.15;0.60;;;19.10;52.20;;;;;;5094836;28;20278;-71
2023/02/17 08:20:20;;;;;;;1.45;0.90;;;19.10;52.00;;;;;;5094600;28;20332;-71
2023/02/17 08:22:47;;;;;;;0.93;0.63;;;19.20;51.70;;;;;;5102407;28;20189;-71
2023/02/17 08:25:14;;;;;;;1.40;0.80;;;19.20;51.30;;;;;;5114766;28;20266;-71
2023/02/17 08:27:43;;;;;;;1.83;0.60;;;19.20;51.50;;;;;;5113201;28;20234;-71
2023/02/17 08:30:11;;;;;;;1.23;0.70;;;19.30;51.60;;;;;;5096487;27;20254;-69
2023/02/17 08:32:39;;;;;;;1.83;0.70;;;19.30;51.50;;;;;;5108293;27;20250;-72
2023/02/17 08:35:07;;;;;;;3.90;1.70;;;19.30;51.30;;;;;;5106417;27;20209;-74
2023/02/17 08:37:34;;;;;;;4.22;0.73;;;19.30;51.20;;;;;;5099446;27;20230;-72
2023/02/17 08:40:01;;;;;;;0.95;0.50;;;19.30;51.10;;;;;;5098755;28;20233;-70
2023/02/17 08:42:28;;;;;;;3.03;0.70;;;19.30;51.10;;;;;;5097445;27;20189;-70
2023/02/17 08:44:57;;;;;;;3.10;0.70;;;19.30;51.20;;;;;;5104408;28;20246;-71
2023/02/17 08:47:24;;;;;;;2.25;0.70;;;19.30;51.00;;;;;;5104570;28;20202;-73
2023/02/17 08:49:51;;;;;;;1.48;0.57;;;19.30;51.00;;;;;;5099381;27;20245;-74
2023/02/17 08:52:18;;;;;;;2.15;0.70;;;19.30;51.00;;;;;;5099094;27;20190;-73
2023/02/17 08:54:45;;;;;;;1.75;0.70;;;19.30;51.00;;;;;;5104015;27;20727;-73
2023/02/17 08:57:12;;;;;;;4.00;0.60;;;19.30;50.90;;;;;;5101493;27;20688;-73
2023/02/17 08:59:39;;;;;;;1.70;0.57;;;19.30;50.90;;;;;;5100430;28;20193;-73
2023/02/17 09:02:08;;;;;;;0.90;0.60;;;19.30;50.90;;;;;;5100810;27;20248;-74
2023/02/17 09:04:35;;;;;;;5.15;1.13;;;19.30;50.80;;;;;;5094192;27;20190;-74
2023/02/17 09:07:02;;;;;;;1.52;0.70;;;19.30;50.80;;;;;;5094763;28;20217;-74
2023/02/17 09:09:30;;;;;;;4.10;0.65;;;19.40;50.90;;;;;;5096053;27;20258;-73
2023/02/17 09:11:58;;;;;;;3.80;0.75;;;19.40;50.90;;;;;;5091585;28;20228;-72
2023/02/17 09:14:26;;;;;;;1.08;0.50;;;19.40;50.80;;;;;;5102073;28;20302;-73
2023/02/17 09:16:54;;;;;;;4.60;0.88;;;19.40;50.90;;;;;;5090130;27;20290;-73
2023/02/17 09:19:24;;;;;;;1.25;0.52;;;19.40;50.90;;;;;;5100543;27;20294;-73
2023/02/17 09:21:52;;;;;;;1.23;0.70;;;19.40;50.80;;;;;;5094924;28;20274;-74
2023/02/17 09:24:19;;;;;;;2.70;1.15;;;19.40;50.80;;;;;;5097076;27;20197;-73
2023/02/17 09:26:47;;;;;;;3.40;0.50;;;19.40;50.80;;;;;;5098757;27;20293;-73
2023/02/17 09:29:14;;;;;;;0.80;0.75;;;19.40;50.80;;;;;;5096108;27;20198;-74
2023/02/17 09:31:41;;;;;;;4.43;0.75;;;19.40;50.80;;;;;;5099139;27;20596;-75
2023/02/17 09:34:08;;;;;;;2.67;0.70;;;19.40;50.80;;;;;;5102247;27;20186;-73
2023/02/17 09:36:40;;;;;;;1.75;0.90;;;19.40;50.80;;;;;;5095455;27;20241;-73
2023/02/17 09:39:08;;;;;;;1.45;0.60;;;19.40;51.00;;;;;;5097748;28;20201;-73
2023/02/17 09:41:39;;;;;;;1.95;0.80;;;19.50;50.90;;;;;;5100912;28;20615;-73
2023/02/17 09:44:14;;;;;;;2.92;0.80;;;19.50;50.90;;;;;;5095228;27;20206;-74
2023/02/17 09:46:46;;;;;;;1.95;0.60;;;19.50;50.90;;;;;;5100022;27;20299;-73
2023/02/17 09:49:19;;;;;;;2.75;0.60;;;19.50;50.90;;;;;;5097904;28;20189;-73
2023/02/17 09:51:54;;;;;;;1.92;0.63;;;19.50;50.90;;;;;;5101880;28;20221;-74
2023/02/17 09:54:28;;;;;;;1.35;0.60;;;19.50;50.90;;;;;;5099906;27;20730;-73
2023/02/17 09:56:58;;;;;;;3.45;0.90;;;19.50;50.90;;;;;;5097387;27;20241;-72
2023/02/17 09:59:32;;;;;;;1.00;0.70;;;19.50;50.80;;;;;;5101846;27;20604;-73
2023/02/17 10:02:01;;;;;;;2.25;0.70;;;19.60;50.90;;;;;;5099549;27;20236;-73
2023/02/17 10:04:33;;;;;;;1.15;0.55;;;19.60;50.90;;;;;;5099813;28;20641;-73
2023/02/17 10:07:09;;;;;;;1.95;0.70;;;19.60;50.80;;;;;;5096792;27;20232;-73
2023/02/17 10:09:45;;;;;;;2.05;0.60;;;19.60;50.90;;;;;;5097111;27;20258;-72
2023/02/17 10:12:18;;;;;;;0.75;0.50;;;19.60;50.80;;;;;;5097120;27;20232;-73
2023/02/17 10:14:56;;;;;;;3.28;0.60;;;19.70;50.90;;;;;;5100081;28;20617;-73
2023/02/17 10:17:30;;;;;;;2.60;0.70;;;19.60;50.80;;;;;;5063555;28;20213;-73
2023/02/17 10:20:05;;;;;;;1.00;0.80;;;19.60;50.80;;;;;;5095974;27;20189;-72
2023/02/17 10:22:34;;;;;;;1.45;0.60;;;19.70;50.80;;;;;;5101640;28;20646;-72
2023/02/17 10:25:13;;;;;;;2.03;0.90;;;19.70;50.70;;;;;;5100612;27;20205;-72
2023/02/17 10:27:43;;;;;;;2.58;0.80;;;19.60;50.70;;;;;;5093510;27;20208;-72
2023/02/17 10:30:26;;;;;;;1.70;0.80;;;19.70;50.70;;;;;;5098623;27;20201;-72
2023/02/17 10:33:01;;;;;;;1.73;0.60;;;19.70;50.80;;;;;;5097742;27;20283;-72
2023/02/17 10:35:42;;;;;;;3.85;0.90;;;19.70;50.80;;;;;;5102834;28;20200;-71
2023/02/17 10:38:17;;;;;;;2.13;0.85;;;19.70;50.80;;;;;;5097394;28;20197;-72
2023/02/17 10:40:50;;;;;;;1.35;0.63;;;19.70;50.70;;;;;;5098917;27;20319;-72
2023/02/17 10:43:22;;;;;;;2.55;0.85;;;19.80;50.80;;;;;;5101373;28;20204;-72
2023/02/17 10:45:52;;;;;;;1.48;0.57;;;19.80;50.80;;;;;;5098647;28;20225;-71
2023/02/17 10:48:22;;;;;;;2.88;0.55;;;19.80;50.80;;;;;;5097363;28;20205;-71
2023/02/17 10:50:50;;;;;;;1.33;0.80;;;19.80;50.80;;;;;;5096717;28;20742;-73
2023/02/17 10:53:23;;;;;;;1.77;0.80;;;19.80;50.80;;;;;;5095096;27;20603;-72
2023/02/17 10:55:57;;;;;;;1.45;0.65;;;19.80;50.80;;;;;;5103157;28;20897;-67
2023/02/17 10:58:31;;;;;;;1.42;0.65;;;19.80;50.20;;;;;;5101002;28;20200;-68
2023/02/17 11:01:01;;;;;;;1.63;0.57;;;19.80;49.60;;;;;;5099618;28;20225;-67
2023/02/17 11:03:30;;;;;;;3.58;0.88;;;19.70;49.40;;;;;;5094073;28;20198;-68
2023/02/17 11:06:00;;;;;;;1.08;0.60;;;19.70;49.60;;;;;;5098922;28;20231;-67
2023/02/17 11:08:37;;;;;;;2.13;0.63;;;19.70;49.90;;;;;;5098025;28;20197;-67
2023/02/17 11:11:07;;;;;;;3.35;0.65;;;19.60;50.10;;;;;;5096786;28;20217;-67
2023/02/17 11:13:37;;;;;;;1.48;0.60;;;19.60;50.10;;;;;;5089402;28;20193;-67
2023/02/17 11:16:05;;;;;;;1.48;0.70;;;19.60;50.30;;;;;;5100812;28;20221;-67
2023/02/17 11:18:36;;;;;;;1.55;0.82;;;19.60;50.30;;;;;;5096730;28;20819;-68
2023/02/17 11:21:07;;;;;;;2.28;0.80;;;19.60;50.30;;;;;;5100859;28;20222;-67
2023/02/17 11:23:36;;;;;;;0.98;0.70;;;19.60;50.40;;;;;;5094926;28;20929;-67
2023/02/17 11:26:11;;;;;;;1.98;0.77;;;19.60;50.50;;;;;;5093031;27;20221;-67
2023/02/17 11:28:38;;;;;;;3.75;1.00;;;19.60;50.50;;;;;;5098182;28;20739;-67
2023/02/17 11:31:06;;;;;;;1.50;0.80;;;19.70;50.60;;;;;;5101049;28;20674;-68
2023/02/17 11:33:36;;;;;;;2.40;0.80;;;19.70;50.60;;;;;;5094741;28;20281;-68
2023/02/17 11:36:06;;;;;;;2.75;1.50;;;19.70;50.70;;;;;;5103727;28;20814;-67
2023/02/17 11:38:44;;;;;;;3.90;0.88;;;19.70;50.60;;;;;;5098624;28;20274;-67
2023/02/17 11:41:11;;;;;;;2.17;0.60;;;19.70;50.60;;;;;;5096692;28;20625;-67
2023/02/17 11:43:41;;;;;;;4.68;0.95;;;19.70;50.60;;;;;;5097554;27;20601;-67
2023/02/17 11:46:22;;;;;;;4.22;0.90;;;19.70;50.60;;;;;;5085050;27;20254;-67
2023/02/17 11:49:07;;;;;;;2.67;0.80;;;19.70;50.60;;;;;;5097377;27;20266;-68
2023/02/17 11:51:50;;;;;;;2.83;0.80;;;19.80;51.30;;;;;;5100267;27;20769;-66
2023/02/17 11:54:28;;;;;;;4.95;1.10;;;19.80;50.70;;;;;;5099521;27;20189;-67
2023/02/17 11:57:06;;;;;;;4.80;1.20;;;19.80;50.70;;;;;;5104289;27;20747;-67
2023/02/17 11:59:46;;;;;;;5.75;1.00;;;19.80;50.70;;;;;;5094384;27;20548;-67
2023/02/17 12:02:27;;;;;;;1.65;0.90;;;19.80;50.70;;;;;;5099355;28;20240;-67
2023/02/17 12:05:12;;;;;;;2.15;0.77;;;19.80;50.80;;;;;;5095434;27;20237;-67
2023/02/17 12:08:01;;;;;;;2.30;0.68;;;19.80;50.80;;;;;;5100962;27;20225;-66
2023/02/17 12:10:43;;;;;;;1.35;0.80;;;19.80;50.80;;;;;;5102108;27;20197;-67
2023/02/17 12:13:28;;;;;;;4.20;0.90;;;19.80;50.80;;;;;;5097133;27;20197;-67
2023/02/17 12:16:10;;;;;;;4.63;1.33;;;19.80;50.80;;;;;;5098028;27;20633;-69
2023/02/17 12:18:49;;;;;;;2.20;0.80;;;19.80;50.80;;;;;;5097244;27;20201;-67
2023/02/17 12:21:31;;;;;;;2.53;1.02;;;19.80;50.80;;;;;;5100756;27;20278;-67
2023/02/17 12:24:22;;;;;;;2.88;1.05;;;19.90;50.80;;;;;;5092506;27;20252;-67
2023/02/17 12:26:58;;;;;;;2.55;0.68;;;19.90;50.80;;;;;;5096583;27;20354;-67
2023/02/17 12:29:40;;;;;;;4.20;1.13;;;19.90;50.90;;;;;;5096976;27;20190;-67
2023/02/17 12:32:26;;;;;;;1.98;0.90;;;19.90;50.90;;;;;;5097146;27;20232;-67
2023/02/17 12:34:58;;;;;;;2.08;1.00;;;20.00;50.90;;;;;;5097546;27;20679;-67
2023/02/17 12:37:30;;;;;;;2.08;0.70;;;19.90;50.80;;;;;;5094279;27;20333;-67
2023/02/17 12:40:03;;;;;;;1.55;0.93;;;20.00;50.90;;;;;;5099251;27;20634;-68
2023/02/17 12:42:35;;;;;;;2.80;1.13;;;19.90;50.80;;;;;;5096802;27;20586;-67
2023/02/17 12:45:06;;;;;;;2.63;1.00;;;20.00;50.90;;;;;;5099074;27;20728;-68
2023/02/17 12:47:41;;;;;;;4.88;1.02;;;20.00;50.90;;;;;;5098965;27;20217;-67
2023/02/17 12:50:19;;;;;;;4.65;1.10;;;20.00;50.90;;;;;;5091048;27;20201;-67
2023/02/17 12:52:52;;;;;;;2.42;0.98;;;20.00;50.90;;;;;;5092650;27;20312;-68
2023/02/17 12:55:22;;;;;;;3.13;1.00;;;20.00;51.60;;;;;;5093840;27;20708;-68
2023/02/17 12:57:57;;;;;;;4.63;1.10;;;20.00;50.90;;;;;;5098728;27;20217;-67
2023/02/17 13:00:36;;;;;;;3.55;0.95;;;20.00;51.00;;;;;;5092705;28;20201;-69
2023/02/17 13:03:05;;;;;;;4.00;1.08;;;20.00;51.30;;;;;;5097905;27;20295;-69
2023/02/17 13:05:46;;;;;;;4.60;0.90;;;20.10;51.60;;;;;;5096744;28;20208;-68
2023/02/17 13:08:21;;;;;;;7.85;1.75;;;20.20;51.70;;;;;;5090308;27;20661;-70
2023/02/17 13:11:01;;;;;;;7.30;1.30;;;20.30;51.60;;;;;;5095599;28;20189;-69